createdAt,value
2022-11-27T15:43:29.546Z,101897.11
2022-11-27T15:44:21.319Z,101885.75
2022-11-27T15:45:21.735Z,101874.95
2022-11-27T15:46:22.574Z,101864.94
2022-11-27T15:47:23.031Z,101855.27
2022-11-27T15:49:00.194Z,101696.89
2022-11-27T15:50:00.733Z,101696.16
2022-11-27T15:51:01.356Z,101696.14
2022-11-27T15:52:02.408Z,101695.81
2022-11-27T15:53:01.750Z,101695.90
2022-11-27T15:54:01.964Z,101696.12
2022-11-27T15:55:02.774Z,101695.56
2022-11-27T15:56:03.629Z,101696.12
2022-11-27T15:57:04.034Z,101696.12
2022-11-27T15:58:04.152Z,101696.38
2022-11-27T15:59:04.611Z,101696.05
2022-11-27T16:00:05.388Z,101696.38
2022-11-27T16:01:05.784Z,101696.62
2022-11-27T16:02:06.015Z,101696.62
2022-11-27T16:03:06.013Z,101696.73
2022-11-27T16:04:06.521Z,101696.05
2022-11-27T16:05:08.009Z,101695.91
2022-11-27T16:06:07.512Z,101695.90
2022-11-27T16:07:08.269Z,101695.92
2022-11-27T16:08:08.998Z,101696.17
2022-11-27T16:09:09.982Z,101696.02
2022-11-27T16:10:10.475Z,101695.84
2022-11-27T16:11:10.568Z,101695.92
2022-11-27T16:11:20.371Z,101693.32
2022-11-27T16:12:19.843Z,101692.26
2022-11-27T16:13:20.302Z,101692.31
2022-11-27T16:14:20.876Z,101691.81
2022-11-27T16:15:23.270Z,101691.14
2022-11-27T16:16:22.458Z,101690.30
2022-11-27T16:17:23.248Z,101689.62
2022-11-27T16:18:24.135Z,101689.12
2022-11-27T16:19:25.289Z,101688.28
2022-11-27T16:20:25.083Z,101687.78
2022-11-27T16:21:29.718Z,101687.45
2022-11-27T16:22:26.301Z,101686.95
2022-11-27T16:23:26.825Z,101686.05
2022-11-27T16:24:27.114Z,101685.63
2022-11-27T16:25:27.620Z,101685.55
2022-11-27T16:26:28.509Z,101684.85
2022-11-27T16:27:29.287Z,101684.02
2022-11-27T16:28:29.436Z,101683.08
2022-11-27T16:29:31.091Z,101682.75
2022-11-27T16:30:30.343Z,101681.58
2022-11-27T16:31:30.784Z,101681.30
2022-11-27T16:32:30.936Z,101680.55
2022-11-27T16:33:31.223Z,101679.30
2022-11-27T16:34:32.566Z,101677.61
2022-11-27T16:35:31.843Z,101676.18
2022-11-27T16:36:33.539Z,101674.69
2022-11-27T16:37:34.192Z,101673.17
2022-11-27T16:37:44.946Z,101659.03
2022-11-27T16:38:45.297Z,101658.19
2022-11-27T16:39:45.725Z,101656.77
2022-11-27T16:40:45.989Z,101655.83
2022-11-27T16:41:46.784Z,101654.44
2022-11-27T16:42:47.225Z,101653.59
2022-11-27T16:43:47.586Z,101652.42
2022-11-27T16:44:48.563Z,101651.33
2022-11-27T16:45:49.136Z,101650.23
2022-11-27T16:46:49.465Z,101649.30
2022-11-27T16:47:49.735Z,101647.73
2022-11-27T16:48:50.196Z,101646.48
2022-11-27T16:49:50.693Z,101645.34
2022-11-27T16:50:52.582Z,101643.89
2022-11-27T16:51:53.599Z,101642.48
2022-11-27T16:52:54.685Z,101640.82
2022-11-27T16:53:53.691Z,101639.32
2022-11-27T16:54:53.960Z,101638.25
2022-11-27T16:55:54.924Z,101636.84
2022-11-27T16:56:55.760Z,101634.84
2022-11-27T16:57:56.047Z,101633.01
2022-11-27T16:59:02.184Z,101630.50
2022-11-27T16:59:56.618Z,101627.66
2022-11-27T17:00:56.724Z,101625.08
2022-11-27T17:01:57.204Z,101621.91
2022-11-27T17:02:57.600Z,101617.97
2022-11-27T17:03:57.961Z,101614.46
2022-11-27T17:04:58.846Z,101611.12
2022-11-27T17:05:59.438Z,101607.81
2022-11-27T17:06:12.824Z,101564.66
2022-11-27T17:07:11.799Z,101563.22
2022-11-27T17:08:12.486Z,101562.30
2022-11-27T17:09:12.858Z,101561.37
2022-11-27T17:10:13.333Z,101560.36
2022-11-27T17:11:13.907Z,101559.87
2022-11-27T17:12:14.539Z,101558.70
2022-11-27T17:13:15.140Z,101558.12
2022-11-27T17:14:15.763Z,101556.18
2022-11-27T17:15:16.241Z,101554.92
2022-11-27T17:16:16.462Z,101553.09
2022-11-27T17:17:16.832Z,101550.91
2022-11-27T17:18:17.389Z,101548.56
2022-11-27T17:19:18.609Z,101545.95
2022-11-27T17:20:17.751Z,101543.94
2022-11-27T17:21:18.761Z,101541.77
2022-11-27T17:22:19.667Z,101538.82
2022-11-27T17:23:21.007Z,101536.38
2022-11-27T17:24:21.470Z,101534.54
2022-11-27T17:25:20.755Z,101533.31
2022-11-27T17:26:21.088Z,101531.55
2022-11-27T17:27:21.915Z,101530.29
2022-11-27T17:28:22.569Z,101528.36
2022-11-27T17:29:23.868Z,101527.17
2022-11-27T17:30:24.121Z,101525.66
2022-11-27T17:31:23.612Z,101524.33
2022-11-27T17:32:24.038Z,101522.81
2022-11-27T17:33:24.046Z,101520.47
2022-11-27T17:34:24.588Z,101518.88
2022-11-27T17:34:42.530Z,101480.16
2022-11-27T17:35:42.310Z,101479.22
2022-11-27T17:36:43.176Z,101479.31
2022-11-27T17:37:43.761Z,101479.05
2022-11-27T17:38:44.543Z,101479.73
2022-11-27T17:39:45.535Z,101481.41
2022-11-27T17:40:46.942Z,101482.16
2022-11-27T17:41:46.684Z,101483.07
2022-11-27T17:42:46.935Z,101484.02
2022-11-27T17:43:48.547Z,101484.46
2022-11-27T17:44:47.918Z,101485.37
2022-11-27T17:45:48.382Z,101485.49
2022-11-27T17:46:49.045Z,101485.56
2022-11-27T17:47:49.933Z,101485.50
2022-11-27T17:48:50.833Z,101485.01
2022-11-27T17:49:51.105Z,101484.78
2022-11-27T17:50:51.270Z,101484.37
2022-11-27T17:51:51.538Z,101484.65
2022-11-27T17:52:52.264Z,101484.56
2022-11-27T17:53:52.648Z,101484.63
2022-11-27T17:54:52.873Z,101484.30
2022-11-27T17:55:53.587Z,101485.39
2022-11-27T17:56:54.038Z,101485.73
2022-11-27T17:57:54.138Z,101486.06
2022-11-27T17:58:54.554Z,101485.89
2022-11-27T17:59:55.558Z,101486.23
2022-11-27T18:01:02.382Z,101485.81
2022-11-27T18:01:56.922Z,101484.80
2022-11-27T18:02:58.198Z,101484.22
2022-11-27T18:03:57.586Z,101482.97
2022-11-27T18:04:06.339Z,101471.36
2022-11-27T18:05:06.418Z,101470.86
2022-11-27T18:06:06.942Z,101470.42
2022-11-27T18:07:07.769Z,101469.94
2022-11-27T18:08:08.238Z,101469.45
2022-11-27T18:09:08.604Z,101469.72
2022-11-27T18:10:09.936Z,101469.48
2022-11-27T18:11:09.166Z,101468.41
2022-11-27T18:12:09.542Z,101468.01
2022-11-27T18:13:10.042Z,101467.50
2022-11-27T18:14:11.001Z,101466.59
2022-11-27T18:15:11.749Z,101466.11
2022-11-27T18:16:11.998Z,101465.01
2022-11-27T18:17:12.597Z,101464.47
2022-11-27T18:18:13.276Z,101463.97
2022-11-27T18:19:14.101Z,101463.82
2022-11-27T18:20:15.091Z,101463.09
2022-11-27T18:21:18.590Z,101462.15
2022-11-27T18:22:16.417Z,101461.84
2022-11-27T18:23:16.928Z,101461.53
2022-11-27T18:24:25.369Z,101461.34
2022-11-27T18:25:17.399Z,101460.92
2022-11-27T18:26:18.039Z,101460.87
2022-11-27T18:27:18.267Z,101460.03
2022-11-27T18:28:19.116Z,101459.53
2022-11-27T18:29:19.425Z,101459.08
2022-11-27T18:30:20.618Z,101458.00
2022-11-27T18:31:19.829Z,101457.00
2022-11-27T18:32:20.393Z,101455.55
2022-11-27T18:33:20.585Z,101454.77
2022-11-27T18:33:32.914Z,101433.80
2022-11-27T18:34:32.952Z,101433.30
2022-11-27T18:35:33.678Z,101433.35
2022-11-27T18:36:34.125Z,101433.35
2022-11-27T18:37:34.184Z,101432.77
2022-11-27T18:38:34.613Z,101432.91
2022-11-27T18:39:35.534Z,101432.16
2022-11-27T18:40:35.746Z,101431.50
2022-11-27T18:41:36.835Z,101430.30
2022-11-27T18:42:36.763Z,101428.80
2022-11-27T18:43:37.221Z,101427.10
2022-11-27T18:44:44.352Z,101425.77
2022-11-27T18:45:38.548Z,101423.65
2022-11-27T18:46:38.726Z,101421.98
2022-11-27T18:47:39.101Z,101420.34
2022-11-27T18:48:39.330Z,101418.49
2022-11-27T18:49:39.779Z,101416.61
2022-11-27T18:50:39.538Z,101415.26
2022-11-27T18:51:40.868Z,101413.63
2022-11-27T18:52:39.922Z,101412.27
2022-11-27T18:53:40.450Z,101411.75
2022-11-27T18:54:41.492Z,101410.41
2022-11-27T18:55:42.241Z,101409.30
2022-11-27T18:56:41.557Z,101407.94
2022-11-27T18:57:41.876Z,101406.44
2022-11-27T18:58:41.855Z,101405.33
2022-11-27T18:59:42.677Z,101403.73
2022-11-27T19:00:43.146Z,101402.04
2022-11-27T19:00:52.909Z,101384.09
2022-11-27T19:01:53.769Z,101383.16
2022-11-27T19:02:54.797Z,101382.33
2022-11-27T19:03:54.940Z,101381.48
2022-11-27T19:04:56.878Z,101381.09
2022-11-27T19:05:57.054Z,101380.26
2022-11-27T19:06:56.331Z,101379.58
2022-11-27T19:07:57.133Z,101377.82
2022-11-27T19:08:57.883Z,101376.73
2022-11-27T19:09:58.587Z,101374.89
2022-11-27T19:10:59.551Z,101373.10
2022-11-27T19:12:00.766Z,101370.67
2022-11-27T19:13:00.073Z,101368.91
2022-11-27T19:14:00.440Z,101366.95
2022-11-27T19:15:01.144Z,101365.09
2022-11-27T19:16:02.172Z,101363.02
2022-11-27T19:17:02.762Z,101361.38
2022-11-27T19:18:03.752Z,101359.17
2022-11-27T19:19:04.390Z,101357.81
2022-11-27T19:20:05.128Z,101355.87
2022-11-27T19:21:05.284Z,101353.98
2022-11-27T19:22:06.684Z,101352.05
2022-11-27T19:23:05.658Z,101350.41
2022-11-27T19:24:06.357Z,101348.20
2022-11-27T19:25:06.695Z,101345.78
2022-11-27T19:26:07.251Z,101344.09
2022-11-27T19:27:08.541Z,101342.39
2022-11-27T19:27:18.377Z,101309.16
2022-11-27T19:28:18.511Z,101308.23
2022-11-27T19:29:19.007Z,101308.33
2022-11-27T19:30:19.998Z,101308.66
2022-11-27T19:31:21.190Z,101308.33
2022-11-27T19:32:20.791Z,101309.09
2022-11-27T19:33:22.238Z,101309.25
2022-11-27T19:34:21.336Z,101309.42
2022-11-27T19:35:21.634Z,101309.81
2022-11-27T19:36:22.217Z,101310.63
2022-11-27T19:37:34.186Z,101310.89
2022-11-27T19:38:23.779Z,101311.60
2022-11-27T19:39:24.545Z,101312.25
2022-11-27T19:40:24.783Z,101313.33
2022-11-27T19:41:25.366Z,101314.31
2022-11-27T19:42:25.882Z,101315.98
2022-11-27T19:43:25.862Z,101317.38
2022-11-27T19:44:25.992Z,101318.53
2022-11-27T19:45:26.372Z,101320.27
2022-11-27T19:46:26.417Z,101321.03
2022-11-27T19:47:28.189Z,101322.43
2022-11-27T19:48:27.457Z,101323.36
2022-11-27T19:49:27.813Z,101324.62
2022-11-27T19:50:28.386Z,101326.13
2022-11-27T19:51:29.323Z,101327.22
2022-11-27T19:52:29.725Z,101328.14
2022-11-27T19:53:30.632Z,101328.92
2022-11-27T19:54:31.589Z,101329.42
2022-11-27T19:54:43.611Z,101344.71
2022-11-27T19:55:43.721Z,101344.20
2022-11-27T19:56:44.514Z,101343.81
2022-11-27T19:57:47.420Z,101343.90
2022-11-27T19:58:46.341Z,101343.56
2022-11-27T19:59:46.889Z,101343.47
2022-11-27T20:00:47.465Z,101343.64
2022-11-27T20:01:47.867Z,101343.81
2022-11-27T20:02:48.695Z,101343.72
2022-11-27T20:03:49.688Z,101344.56
2022-11-27T20:04:50.365Z,101344.67
2022-11-27T20:05:51.289Z,101344.92
2022-11-27T20:06:51.018Z,101345.17
2022-11-27T20:07:51.596Z,101345.62
2022-11-27T20:08:52.438Z,101345.70
2022-11-27T20:09:53.168Z,101345.89
2022-11-27T20:10:53.450Z,101345.56
2022-11-27T20:11:54.305Z,101345.08
2022-11-27T20:12:54.364Z,101345.02
2022-11-27T20:13:54.460Z,101344.28
2022-11-27T20:14:54.719Z,101343.69
2022-11-27T20:15:09.086Z,101336.68
2022-11-27T20:16:08.052Z,101336.17
2022-11-27T20:17:08.472Z,101335.67
2022-11-27T20:18:10.320Z,101335.17
2022-11-27T20:19:09.814Z,101334.33
2022-11-27T20:20:10.326Z,101334.09
2022-11-27T20:21:11.545Z,101333.84
2022-11-27T20:22:10.908Z,101333.67
2022-11-27T20:23:11.349Z,101332.91
2022-11-27T20:24:11.708Z,101332.83
2022-11-27T20:25:19.459Z,101332.32
2022-11-27T20:26:12.937Z,101331.89
2022-11-27T20:27:13.245Z,101331.42
2022-11-27T20:28:13.450Z,101331.41
2022-11-27T20:29:14.248Z,101331.52
2022-11-27T20:30:14.932Z,101331.03
2022-11-27T20:31:15.345Z,101330.86
2022-11-27T20:32:16.003Z,101330.55
2022-11-27T20:33:16.604Z,101329.70
2022-11-27T20:34:17.643Z,101329.81
2022-11-27T20:35:18.037Z,101329.73
2022-11-27T20:36:18.121Z,101329.38
2022-11-27T20:37:18.173Z,101329.00
2022-11-27T20:38:18.594Z,101329.33
2022-11-27T20:39:21.861Z,101328.91
2022-11-27T20:40:20.008Z,101328.41
2022-11-27T20:41:20.340Z,101327.91
2022-11-27T20:42:21.011Z,101326.89
2022-11-27T20:43:21.188Z,101326.81
2022-11-27T20:43:50.193Z,101314.90
2022-11-27T20:44:43.767Z,101315.23
2022-11-27T20:45:42.483Z,101315.06
2022-11-27T20:46:42.647Z,101315.06
2022-11-27T20:47:45.472Z,101315.23
2022-11-27T20:48:46.380Z,101315.13
2022-11-27T20:49:45.087Z,101314.70
2022-11-27T20:50:52.969Z,101315.11
2022-11-27T20:51:46.745Z,101314.86
2022-11-27T20:52:49.751Z,101314.42
2022-11-27T20:53:54.832Z,101314.48
2022-11-27T20:54:50.137Z,101314.55
2022-11-27T20:55:48.446Z,101315.03
2022-11-27T20:56:48.767Z,101315.27
2022-11-27T20:57:54.735Z,101314.98
2022-11-27T20:58:50.102Z,101314.64
2022-11-27T20:59:51.119Z,101314.11
2022-11-27T21:00:51.174Z,101313.67
2022-11-27T21:01:52.076Z,101312.77
2022-11-27T21:02:55.114Z,101311.98
2022-11-27T21:03:52.992Z,101311.13
2022-11-27T21:04:56.186Z,101309.70
2022-11-27T21:05:54.717Z,101309.03
2022-11-27T21:07:02.709Z,101307.69
2022-11-27T21:07:56.141Z,101306.49
2022-11-27T21:08:07.666Z,101283.98
2022-11-27T21:09:09.592Z,101283.39
2022-11-27T21:10:07.756Z,101282.97
2022-11-27T21:11:08.711Z,101282.39
2022-11-27T21:12:08.854Z,101281.21
2022-11-27T21:13:09.297Z,101281.44
2022-11-27T21:14:09.912Z,101281.44
2022-11-27T21:15:10.650Z,101280.87
2022-11-27T21:16:10.975Z,101281.38
2022-11-27T21:17:11.680Z,101281.63
2022-11-27T21:18:11.682Z,101282.13
2022-11-27T21:19:12.306Z,101281.95
2022-11-27T21:20:20.446Z,101282.66
2022-11-27T21:21:13.589Z,101282.65
2022-11-27T21:22:13.846Z,101282.84
2022-11-27T21:23:16.985Z,101283.77
2022-11-27T21:24:15.250Z,101284.13
2022-11-27T21:25:15.479Z,101284.45
2022-11-27T21:26:16.523Z,101284.81
2022-11-27T21:27:19.805Z,101284.58
2022-11-27T21:28:18.422Z,101284.66
2022-11-27T21:29:19.212Z,101284.03
2022-11-27T21:30:19.571Z,101283.55
2022-11-27T21:31:20.271Z,101282.73
2022-11-27T21:32:20.440Z,101282.30
2022-11-27T21:33:21.365Z,101281.02
2022-11-27T21:34:22.256Z,101280.53
2022-11-27T21:35:30.085Z,101279.88
2022-11-27T21:36:23.807Z,101279.05
2022-11-27T21:37:24.441Z,101278.23
2022-11-27T21:37:35.432Z,101270.59
2022-11-27T21:38:35.623Z,101269.91
2022-11-27T21:39:36.213Z,101269.58
2022-11-27T21:40:36.871Z,101269.41
2022-11-27T21:41:37.546Z,101269.41
2022-11-27T21:42:43.000Z,101269.41
2022-11-27T21:43:38.755Z,101269.75
2022-11-27T21:44:41.297Z,101270.47
2022-11-27T21:45:39.763Z,101271.14
2022-11-27T21:46:40.497Z,101271.64
2022-11-27T21:47:41.511Z,101272.91
2022-11-27T21:48:44.916Z,101273.75
2022-11-27T21:49:50.316Z,101275.25
2022-11-27T21:50:43.948Z,101276.77
2022-11-27T21:51:44.718Z,101277.85
2022-11-27T21:52:44.681Z,101279.19
2022-11-27T21:53:45.070Z,101279.64
2022-11-27T21:54:46.051Z,101279.89
2022-11-27T21:55:45.920Z,101281.40
2022-11-27T21:56:45.959Z,101282.09
2022-11-27T21:57:48.941Z,101282.84
2022-11-27T21:58:49.826Z,101283.67
2022-11-27T21:59:47.950Z,101284.63
2022-11-27T22:00:49.584Z,101284.63
2022-11-27T22:01:49.718Z,101285.37
2022-11-27T22:02:50.469Z,101285.81
2022-11-27T22:03:53.124Z,101286.51
2022-11-27T22:04:51.811Z,101287.17
2022-11-27T22:05:02.461Z,101296.27
2022-11-27T22:06:04.951Z,101295.77
2022-11-27T22:07:10.062Z,101295.01
2022-11-27T22:08:03.828Z,101294.51
2022-11-27T22:09:04.592Z,101294.25
2022-11-27T22:10:07.337Z,101293.70
2022-11-27T22:11:13.670Z,101293.44
2022-11-27T22:12:05.738Z,101292.96
2022-11-27T22:13:07.399Z,101292.14
2022-11-27T22:14:09.791Z,101292.30
2022-11-27T22:15:07.503Z,101291.56
2022-11-27T22:16:07.977Z,101291.25
2022-11-27T22:17:08.516Z,101291.09
2022-11-27T22:18:11.984Z,101290.77
2022-11-27T22:19:15.105Z,101290.30
2022-11-27T22:20:10.347Z,101289.66
2022-11-27T22:21:10.770Z,101289.00
2022-11-27T22:22:11.430Z,101288.45
2022-11-27T22:23:11.423Z,101287.72
2022-11-27T22:24:16.893Z,101287.14
2022-11-27T22:25:11.916Z,101286.86
2022-11-27T22:26:12.174Z,101285.11
2022-11-27T22:27:12.238Z,101284.55
2022-11-27T22:28:12.267Z,101283.22
2022-11-27T22:29:13.195Z,101282.47
2022-11-27T22:29:21.975Z,101271.33
2022-11-27T22:30:22.913Z,101270.98
2022-11-27T22:31:23.492Z,101270.48
2022-11-27T22:32:26.363Z,101269.56
2022-11-27T22:33:27.239Z,101269.00
2022-11-27T22:34:25.732Z,101268.41
2022-11-27T22:35:26.624Z,101267.98
2022-11-27T22:36:27.562Z,101267.73
2022-11-27T22:37:27.507Z,101267.17
2022-11-27T22:38:28.350Z,101267.00
2022-11-27T22:39:28.919Z,101266.17
2022-11-27T22:40:29.741Z,101265.39
2022-11-27T22:41:31.298Z,101263.55
2022-11-27T22:42:32.931Z,101261.63
2022-11-27T22:43:31.594Z,101259.20
2022-11-27T22:44:32.344Z,101256.83
2022-11-27T22:45:33.356Z,101253.23
2022-11-27T22:46:33.683Z,101249.80
2022-11-27T22:47:34.640Z,101247.26
2022-11-27T22:48:35.428Z,101244.24
2022-11-27T22:49:35.881Z,101242.16
2022-11-27T22:50:36.268Z,101240.73
2022-11-27T22:50:46.991Z,101229.28
2022-11-27T22:51:47.431Z,101228.18
2022-11-27T22:52:47.424Z,101228.86
2022-11-27T22:53:48.531Z,101228.58
2022-11-27T22:54:50.356Z,101228.75
2022-11-27T22:55:48.755Z,101228.15
2022-11-27T22:56:49.049Z,101227.48
2022-11-27T22:57:49.378Z,101226.29
2022-11-27T22:58:58.281Z,101225.68
2022-11-27T22:59:50.417Z,101225.49
2022-11-27T23:00:58.573Z,101225.06
2022-11-27T23:01:51.734Z,101225.19
2022-11-27T23:02:52.539Z,101224.84
2022-11-27T23:03:53.253Z,101224.16
2022-11-27T23:04:53.865Z,101224.53
2022-11-27T23:05:54.017Z,101224.26
2022-11-27T23:06:54.990Z,101222.92
2022-11-27T23:07:57.204Z,101222.00
2022-11-27T23:08:55.602Z,101221.22
2022-11-27T23:09:55.802Z,101220.55
2022-11-27T23:10:55.888Z,101220.33
2022-11-27T23:11:56.771Z,101219.73
2022-11-27T23:13:07.682Z,101215.17
2022-11-27T23:14:08.283Z,101214.12
2022-11-27T23:15:08.988Z,101214.45
2022-11-27T23:16:09.148Z,101214.36
2022-11-27T23:17:09.423Z,101214.70
2022-11-27T23:18:12.302Z,101215.11
2022-11-27T23:19:10.174Z,101215.70
2022-11-27T23:20:13.478Z,101215.53
2022-11-27T23:21:11.410Z,101215.78
2022-11-27T23:22:12.451Z,101216.04
2022-11-27T23:23:12.585Z,101216.47
2022-11-27T23:24:13.368Z,101215.45
2022-11-27T23:25:13.861Z,101214.93
2022-11-27T23:26:17.932Z,101214.44
2022-11-27T23:42:36.587Z,101174.78
2022-11-27T23:43:36.817Z,101174.19
2022-11-27T23:44:37.477Z,101174.19
2022-11-27T23:45:44.910Z,101173.17
2022-11-27T23:46:37.895Z,101172.45
2022-11-27T23:48:22.321Z,101172.28
2022-11-27T23:49:24.293Z,101172.28
2022-11-27T23:50:26.325Z,101171.95
2022-11-27T23:51:25.277Z,101171.19
2022-11-27T23:52:25.047Z,101170.35
2022-11-27T23:53:25.202Z,101169.34
2022-11-27T23:54:26.293Z,101169.09
2022-11-27T23:55:25.706Z,101168.59
2022-11-27T23:56:26.790Z,101167.84
2022-11-27T23:57:25.864Z,101167.50
2022-11-27T23:58:26.859Z,101167.25
2022-11-27T23:59:27.731Z,101167.06
